createdAt,value
2019-03-30T00:01:55.280Z,6.70
2019-03-30T00:04:23.708Z,6.70
2019-03-30T00:06:52.124Z,6.70
2019-03-30T00:09:20.547Z,6.60
2019-03-30T00:11:48.971Z,6.60
2019-03-30T00:14:17.380Z,6.60
2019-03-30T00:16:45.791Z,6.60
2019-03-30T00:19:14.201Z,6.50
2019-03-30T00:21:42.618Z,6.50
2019-03-30T00:24:11.033Z,6.50
2019-03-30T00:26:39.456Z,6.40
2019-03-30T00:29:07.878Z,6.40
2019-03-30T00:31:36.312Z,6.30
2019-03-30T00:34:04.887Z,6.30
2019-03-30T00:36:33.282Z,6.30
2019-03-30T00:39:01.726Z,6.30
2019-03-30T00:41:30.209Z,6.30
2019-03-30T00:43:58.628Z,6.30
2019-03-30T00:46:27.058Z,6.30
2019-03-30T00:48:55.475Z,6.30
2019-03-30T00:51:23.908Z,6.20
2019-03-30T00:53:52.321Z,6.20
2019-03-30T00:56:20.737Z,6.20
2019-03-30T00:58:49.161Z,6.20
2019-03-30T01:01:18.198Z,6.20
2019-03-30T01:03:46.610Z,6.20
2019-03-30T01:06:15.036Z,6.20
2019-03-30T01:08:43.445Z,6.20
2019-03-30T01:11:11.921Z,6.20
2019-03-30T01:13:40.414Z,6.10
2019-03-30T01:16:08.816Z,6.10
2019-03-30T01:18:37.378Z,6.10
2019-03-30T01:21:05.757Z,6.20
2019-03-30T01:23:34.180Z,6.10
2019-03-30T01:26:03.616Z,6.10
2019-03-30T01:28:32.033Z,6.10
2019-03-30T01:31:00.452Z,6.00
2019-03-30T01:33:28.898Z,6.00
2019-03-30T01:35:57.358Z,6.10
2019-03-30T01:38:26.013Z,6.00
2019-03-30T01:40:54.533Z,6.00
2019-03-30T01:43:23.068Z,6.00
2019-03-30T01:45:51.546Z,6.00
2019-03-30T01:48:20.095Z,6.00
2019-03-30T01:50:48.524Z,5.90
2019-03-30T01:53:16.930Z,5.90
2019-03-30T01:55:46.149Z,5.80
2019-03-30T01:58:14.566Z,5.80
2019-03-30T02:00:42.975Z,5.80
2019-03-30T02:03:11.417Z,5.70
2019-03-30T02:05:39.859Z,5.70
2019-03-30T02:08:08.287Z,5.70
2019-03-30T02:10:41.759Z,5.70
2019-03-30T02:13:10.278Z,5.70
2019-03-30T02:15:38.902Z,5.60
2019-03-30T02:18:07.647Z,5.60
2019-03-30T02:20:41.137Z,5.60
2019-03-30T02:23:09.619Z,5.50
2019-03-30T02:25:38.045Z,5.60
2019-03-30T02:28:07.611Z,5.60
2019-03-30T02:30:36.400Z,5.60
2019-03-30T02:33:05.161Z,5.60
2019-03-30T02:35:33.573Z,5.50
2019-03-30T02:38:01.998Z,5.60
2019-03-30T02:40:30.409Z,5.50
2019-03-30T02:42:58.866Z,5.50
2019-03-30T02:45:27.271Z,5.50
2019-03-30T02:47:55.685Z,5.50
2019-03-30T02:50:24.117Z,5.50
2019-03-30T02:52:52.547Z,5.50
2019-03-30T02:55:21.060Z,5.50
2019-03-30T02:57:49.473Z,5.40
2019-03-30T03:00:18.017Z,5.40
2019-03-30T03:02:46.442Z,5.40
2019-03-30T03:05:14.987Z,5.40
2019-03-30T03:07:43.402Z,5.40
2019-03-30T03:10:12.251Z,5.40
2019-03-30T03:12:40.674Z,5.40
2019-03-30T03:15:09.361Z,5.50
2019-03-30T03:17:37.808Z,5.40
2019-03-30T03:20:11.404Z,5.40
2019-03-30T03:22:39.846Z,5.40
2019-03-30T03:25:08.505Z,5.40
2019-03-30T03:27:36.964Z,5.40
2019-03-30T03:30:06.927Z,5.40
2019-03-30T03:32:35.385Z,5.40
2019-03-30T03:35:03.956Z,5.40
2019-03-30T03:37:44.537Z,5.30
2019-03-30T03:40:02.560Z,5.20
2019-03-30T03:42:30.987Z,5.20
2019-03-30T03:44:59.470Z,5.20
2019-03-30T03:47:27.865Z,5.20
2019-03-30T03:49:56.348Z,5.20
2019-03-30T03:52:24.931Z,5.20
2019-03-30T03:54:54.925Z,5.30
2019-03-30T03:57:26.028Z,5.30
2019-03-30T03:59:56.560Z,5.20
2019-03-30T04:02:27.383Z,5.20
2019-03-30T04:04:57.540Z,5.20
2019-03-30T04:07:28.826Z,5.30
2019-03-30T04:10:00.532Z,5.30
2019-03-30T04:12:31.590Z,5.20
2019-03-30T04:15:02.709Z,5.30
2019-03-30T04:17:31.608Z,5.20
2019-03-30T04:20:00.112Z,5.20
2019-03-30T04:22:28.600Z,5.20
2019-03-30T04:24:57.144Z,5.10
2019-03-30T04:27:25.762Z,5.10
2019-03-30T04:29:54.165Z,5.10
2019-03-30T04:32:22.563Z,5.20
2019-03-30T04:34:51.126Z,5.10
2019-03-30T04:37:19.534Z,5.10
2019-03-30T04:39:47.959Z,5.10
2019-03-30T04:42:16.387Z,5.10
2019-03-30T04:44:44.792Z,5.10
2019-03-30T04:47:13.247Z,5.10
2019-03-30T04:49:41.789Z,5.10
2019-03-30T04:52:10.218Z,5.10
2019-03-30T04:54:38.638Z,5.10
2019-03-30T04:57:07.040Z,5.10
2019-03-30T04:59:35.450Z,5.10
2019-03-30T05:02:03.874Z,5.10
2019-03-30T05:04:32.275Z,5.10
2019-03-30T05:07:00.673Z,5.10
2019-03-30T05:09:29.092Z,5.10
2019-03-30T05:11:57.518Z,5.10
2019-03-30T05:14:25.928Z,5.00
2019-03-30T05:16:54.351Z,5.00
2019-03-30T05:19:22.763Z,5.00
2019-03-30T05:21:51.162Z,5.00
2019-03-30T05:24:19.589Z,5.10
2019-03-30T05:26:48.000Z,5.10
2019-03-30T05:29:16.419Z,5.10
2019-03-30T05:31:44.847Z,5.10
2019-03-30T05:34:13.268Z,5.10
2019-03-30T05:36:41.682Z,5.10
2019-03-30T05:39:10.106Z,5.20
2019-03-30T05:41:38.533Z,5.20
2019-03-30T05:44:06.928Z,5.10
2019-03-30T05:46:35.373Z,5.10
2019-03-30T05:49:03.776Z,5.20
2019-03-30T05:51:32.202Z,5.30
2019-03-30T05:54:00.638Z,5.30
2019-03-30T05:56:29.109Z,5.30
2019-03-30T05:58:57.516Z,5.30
2019-03-30T06:01:25.934Z,5.40
2019-03-30T06:03:54.358Z,5.40
2019-03-30T06:06:22.767Z,5.40
2019-03-30T06:08:51.194Z,5.40
2019-03-30T06:11:19.602Z,5.40
2019-03-30T06:13:48.023Z,5.40
2019-03-30T06:16:17.353Z,5.40
2019-03-30T06:18:45.766Z,5.40
2019-03-30T06:21:14.227Z,5.40
2019-03-30T06:23:42.634Z,5.40
2019-03-30T06:26:11.058Z,5.50
2019-03-30T06:28:39.491Z,5.60
2019-03-30T06:31:07.915Z,5.70
2019-03-30T06:33:36.329Z,5.70
2019-03-30T06:36:04.876Z,5.80
2019-03-30T06:38:33.286Z,5.90
2019-03-30T06:41:01.735Z,6.00
2019-03-30T06:43:30.232Z,6.10
2019-03-30T06:45:58.708Z,6.30
2019-03-30T06:48:27.115Z,6.40
2019-03-30T06:50:55.681Z,6.50
2019-03-30T06:53:24.859Z,6.60
2019-03-30T06:55:53.321Z,6.60
2019-03-30T06:58:21.760Z,6.80
2019-03-30T07:00:51.009Z,7.00
2019-03-30T07:03:19.484Z,7.10
2019-03-30T07:05:47.908Z,7.10
2019-03-30T07:08:17.446Z,7.30
2019-03-30T07:10:46.617Z,7.40
2019-03-30T07:13:15.097Z,7.60
2019-03-30T07:15:47.497Z,7.70
2019-03-30T07:18:16.816Z,7.80
2019-03-30T07:20:45.259Z,8.00
2019-03-30T07:23:14.036Z,8.20
2019-03-30T07:25:42.474Z,8.40
2019-03-30T07:28:10.878Z,8.50
2019-03-30T07:30:39.389Z,8.60
2019-03-30T07:33:07.814Z,8.70
2019-03-30T07:35:36.300Z,8.80
2019-03-30T07:38:04.712Z,9.00
2019-03-30T07:40:34.026Z,9.10
2019-03-30T07:43:02.634Z,9.30
2019-03-30T07:45:31.107Z,9.50
2019-03-30T07:47:59.529Z,9.70
2019-03-30T07:50:27.939Z,10.00
2019-03-30T07:52:56.370Z,10.00
2019-03-30T07:55:24.780Z,10.10
2019-03-30T07:57:53.275Z,10.20
2019-03-30T08:00:21.840Z,10.30
2019-03-30T08:02:50.265Z,10.50
2019-03-30T08:05:18.770Z,10.60
2019-03-30T08:07:47.284Z,10.60
2019-03-30T08:10:16.245Z,10.70
2019-03-30T08:12:44.705Z,10.80
2019-03-30T08:15:13.789Z,11.00
2019-03-30T08:17:42.195Z,11.20
2019-03-30T08:20:11.259Z,11.30
2019-03-30T08:22:39.672Z,11.50
2019-03-30T08:25:08.252Z,11.50
2019-03-30T08:27:36.647Z,11.60
2019-03-30T08:30:06.333Z,11.70
2019-03-30T08:32:34.796Z,11.90
2019-03-30T08:35:03.630Z,12.10
2019-03-30T08:37:32.103Z,12.20
2019-03-30T08:40:00.515Z,12.40
2019-03-30T08:42:28.962Z,12.60
2019-03-30T08:44:57.392Z,12.70
2019-03-30T08:47:25.799Z,12.80
2019-03-30T08:49:54.224Z,12.80
2019-03-30T08:52:22.675Z,12.80
2019-03-30T08:54:51.162Z,13.00
2019-03-30T08:57:19.570Z,13.20
2019-03-30T08:59:47.997Z,13.30
2019-03-30T09:02:16.437Z,13.50
2019-03-30T09:04:44.842Z,13.70
2019-03-30T09:07:13.239Z,13.80
2019-03-30T09:09:41.692Z,13.90
2019-03-30T09:12:10.092Z,13.90
2019-03-30T09:14:38.492Z,14.00
2019-03-30T09:17:06.921Z,14.20
2019-03-30T09:19:35.451Z,14.30
2019-03-30T09:22:03.934Z,14.40
2019-03-30T09:24:32.372Z,14.60
2019-03-30T09:27:00.804Z,14.70
2019-03-30T09:29:29.298Z,14.70
2019-03-30T09:31:57.698Z,14.80
2019-03-30T09:34:26.161Z,15.00
2019-03-30T09:36:54.757Z,15.00
2019-03-30T09:39:23.469Z,15.10
2019-03-30T09:41:51.864Z,15.20
2019-03-30T09:44:20.302Z,15.30
2019-03-30T09:46:48.773Z,15.40
2019-03-30T09:49:17.179Z,15.40
2019-03-30T09:51:45.626Z,15.50
2019-03-30T09:54:23.756Z,15.60
2019-03-30T09:56:44.170Z,15.70
2019-03-30T09:59:12.588Z,15.90
2019-03-30T10:01:41.027Z,15.90
2019-03-30T10:04:09.422Z,15.90
2019-03-30T10:06:37.852Z,15.90
2019-03-30T10:09:06.795Z,16.00
2019-03-30T10:11:35.240Z,16.20
2019-03-30T10:14:03.700Z,16.30
2019-03-30T10:16:32.151Z,16.40
2019-03-30T10:19:00.572Z,16.40
2019-03-30T10:21:28.958Z,16.60
2019-03-30T10:23:57.399Z,16.60
2019-03-30T10:26:25.813Z,16.60
2019-03-30T10:28:54.247Z,16.70
2019-03-30T10:31:22.673Z,16.70
2019-03-30T10:33:51.112Z,16.90
2019-03-30T10:36:19.511Z,16.80
2019-03-30T10:38:47.932Z,16.80
2019-03-30T10:41:16.351Z,16.80
2019-03-30T10:43:44.801Z,16.90
2019-03-30T10:46:13.252Z,16.90
2019-03-30T10:48:41.679Z,17.00
2019-03-30T10:51:10.106Z,17.20
2019-03-30T10:53:38.522Z,17.20
2019-03-30T10:56:06.956Z,17.10
2019-03-30T10:58:35.368Z,17.30
2019-03-30T11:01:03.866Z,17.40
2019-03-30T11:03:32.285Z,17.40
2019-03-30T11:06:00.717Z,17.40
2019-03-30T11:08:29.311Z,17.50
2019-03-30T11:10:57.721Z,17.70
2019-03-30T11:13:26.326Z,17.60
2019-03-30T11:15:54.750Z,17.60
2019-03-30T11:18:23.181Z,17.60
2019-03-30T11:20:51.593Z,17.60
2019-03-30T11:23:20.034Z,17.70
2019-03-30T11:25:48.442Z,17.80
2019-03-30T11:28:16.884Z,18.00
2019-03-30T11:30:45.324Z,17.90
2019-03-30T11:33:13.760Z,17.90
2019-03-30T11:35:42.162Z,18.00
2019-03-30T11:38:10.598Z,18.10
2019-03-30T11:40:39.019Z,18.10
2019-03-30T11:43:07.440Z,18.00
2019-03-30T11:45:35.855Z,18.20
2019-03-30T11:48:04.330Z,18.40
2019-03-30T11:50:32.768Z,18.50
2019-03-30T11:53:01.191Z,18.50
2019-03-30T11:55:29.620Z,18.50
2019-03-30T11:57:58.020Z,18.50
2019-03-30T12:00:26.515Z,18.60
2019-03-30T12:02:54.937Z,18.80
2019-03-30T12:05:23.365Z,18.80
2019-03-30T12:07:51.819Z,18.90
2019-03-30T12:10:20.312Z,18.90
2019-03-30T12:12:49.106Z,18.90
2019-03-30T12:15:17.546Z,18.90
2019-03-30T12:17:45.958Z,19.10
2019-03-30T12:20:14.514Z,19.20
2019-03-30T12:22:42.938Z,19.10
2019-03-30T12:25:11.499Z,18.80
2019-03-30T12:27:39.932Z,19.00
2019-03-30T12:30:08.616Z,19.10
2019-03-30T12:32:37.056Z,19.20
2019-03-30T12:35:07.053Z,19.00
2019-03-30T12:37:35.845Z,19.10
2019-03-30T12:40:05.999Z,19.20
2019-03-30T12:42:34.439Z,19.40
2019-03-30T12:45:03.515Z,19.50
2019-03-30T12:47:31.954Z,19.60
2019-03-30T12:50:00.408Z,19.50
2019-03-30T12:52:29.514Z,19.50
2019-03-30T12:54:57.951Z,19.60
2019-03-30T12:57:26.369Z,19.80
2019-03-30T12:59:54.802Z,20.00
2019-03-30T13:02:23.274Z,20.10
2019-03-30T13:04:51.766Z,20.10
2019-03-30T13:07:20.194Z,19.90
2019-03-30T13:09:48.620Z,19.80
2019-03-30T13:12:17.025Z,19.70
2019-03-30T13:14:45.462Z,19.70
2019-03-30T13:17:13.870Z,19.70
2019-03-30T13:19:42.308Z,19.70
2019-03-30T13:22:10.732Z,19.80
2019-03-30T13:24:39.148Z,19.90
2019-03-30T13:27:07.587Z,19.90
2019-03-30T13:29:35.993Z,19.70
2019-03-30T13:32:04.414Z,19.80
2019-03-30T13:34:32.866Z,19.90
2019-03-30T13:37:04.372Z,20.00
2019-03-30T13:39:32.784Z,19.90
2019-03-30T13:42:01.208Z,19.70
2019-03-30T13:44:29.621Z,19.70
2019-03-30T13:46:58.058Z,19.70
2019-03-30T13:49:29.535Z,20.00
2019-03-30T13:51:57.561Z,20.10
2019-03-30T13:54:25.989Z,20.00
2019-03-30T13:56:54.402Z,20.10
2019-03-30T13:59:22.841Z,20.10
2019-03-30T14:01:51.345Z,20.20
2019-03-30T14:04:19.754Z,20.10
2019-03-30T14:06:48.249Z,20.00
2019-03-30T14:09:16.658Z,19.90
2019-03-30T14:11:45.090Z,20.10
2019-03-30T14:14:13.513Z,20.00
2019-03-30T14:16:41.934Z,20.00
2019-03-30T14:19:10.364Z,20.10
2019-03-30T14:21:38.786Z,20.10
2019-03-30T14:24:07.214Z,20.30
2019-03-30T14:26:35.640Z,20.30
2019-03-30T14:29:04.061Z,20.30
2019-03-30T14:31:32.513Z,20.50
2019-03-30T14:34:00.943Z,20.60
2019-03-30T14:36:29.351Z,20.70
2019-03-30T14:38:57.771Z,21.00
2019-03-30T14:41:26.177Z,20.80
2019-03-30T14:43:54.614Z,20.70
2019-03-30T14:46:23.038Z,20.80
2019-03-30T14:48:51.469Z,20.90
2019-03-30T14:51:19.916Z,20.90
2019-03-30T14:53:48.402Z,21.40
2019-03-30T14:56:16.832Z,22.30
2019-03-30T14:58:45.288Z,23.10
2019-03-30T15:01:13.835Z,23.40
2019-03-30T15:03:42.276Z,24.00
2019-03-30T15:06:10.691Z,24.20
2019-03-30T15:08:39.114Z,23.50
2019-03-30T15:11:07.602Z,23.40
2019-03-30T15:13:36.038Z,23.50
2019-03-30T15:16:04.480Z,23.10
2019-03-30T15:18:34.903Z,22.70
2019-03-30T15:21:03.328Z,22.30
2019-03-30T15:23:31.738Z,21.70
2019-03-30T15:26:00.162Z,21.30
2019-03-30T15:28:28.691Z,20.90
2019-03-30T15:30:57.113Z,20.60
2019-03-30T15:33:25.549Z,20.20
2019-03-30T15:35:53.971Z,19.80
2019-03-30T15:38:22.824Z,19.50
2019-03-30T15:40:51.312Z,19.10
2019-03-30T15:43:19.710Z,18.90
2019-03-30T15:45:48.133Z,18.60
2019-03-30T15:48:16.561Z,18.40
2019-03-30T15:50:44.991Z,18.10
2019-03-30T15:53:13.421Z,17.90
2019-03-30T15:55:41.867Z,17.80
2019-03-30T15:58:10.264Z,17.60
2019-03-30T16:00:38.682Z,17.60
2019-03-30T16:03:07.123Z,17.40
2019-03-30T16:05:35.603Z,17.30
2019-03-30T16:08:04.159Z,17.10
2019-03-30T16:10:32.589Z,17.00
2019-03-30T16:13:01.015Z,16.90
2019-03-30T16:15:29.423Z,16.90
2019-03-30T16:17:57.842Z,16.80
2019-03-30T16:20:26.338Z,16.50
2019-03-30T16:22:54.753Z,16.40
2019-03-30T16:25:23.242Z,16.40
2019-03-30T16:27:51.671Z,16.30
2019-03-30T16:30:20.539Z,16.20
2019-03-30T16:32:48.980Z,16.10
2019-03-30T16:35:17.410Z,16.00
2019-03-30T16:37:45.876Z,16.00
2019-03-30T16:43:08.426Z,15.80
2019-03-30T16:45:36.240Z,15.70
2019-03-30T16:48:04.802Z,15.60
2019-03-30T16:50:33.366Z,15.60
2019-03-30T16:53:01.811Z,15.50
2019-03-30T16:55:30.243Z,15.40
2019-03-30T16:57:58.659Z,15.30
2019-03-30T17:00:30.183Z,15.20
2019-03-30T17:02:58.593Z,15.10
2019-03-30T17:05:27.035Z,15.00
2019-03-30T17:07:55.473Z,14.90
2019-03-30T17:10:23.875Z,14.80
2019-03-30T17:12:52.312Z,14.70
2019-03-30T17:15:20.729Z,14.50
2019-03-30T17:17:49.136Z,14.40
2019-03-30T17:20:17.650Z,14.30
2019-03-30T17:22:47.351Z,14.20
2019-03-30T17:25:15.760Z,14.00
2019-03-30T17:27:57.401Z,13.90
2019-03-30T17:30:14.687Z,13.70
2019-03-30T17:32:43.183Z,13.70
2019-03-30T17:35:11.839Z,13.60
2019-03-30T17:37:40.254Z,13.50
2019-03-30T17:40:09.939Z,13.40
2019-03-30T17:42:38.909Z,13.30
2019-03-30T17:45:09.211Z,13.20
2019-03-30T17:47:37.715Z,13.10
2019-03-30T17:50:07.697Z,13.00
2019-03-30T17:52:36.120Z,12.90
2019-03-30T17:55:04.894Z,12.80
2019-03-30T17:57:33.319Z,12.80
2019-03-30T18:00:03.444Z,12.70
2019-03-30T18:02:31.860Z,12.60
2019-03-30T18:05:00.448Z,12.50
2019-03-30T18:07:29.059Z,12.40
2019-03-30T18:09:57.499Z,12.20
2019-03-30T18:12:26.949Z,12.10
2019-03-30T18:14:55.388Z,12.00
2019-03-30T18:17:25.113Z,11.90
2019-03-30T18:19:53.531Z,11.80
2019-03-30T18:22:21.940Z,11.70
2019-03-30T18:24:50.378Z,11.70
2019-03-30T18:27:18.855Z,11.60
2019-03-30T18:29:47.272Z,11.60
2019-03-30T18:32:16.070Z,11.50
2019-03-30T18:34:45.027Z,11.50
2019-03-30T18:37:14.633Z,11.40
2019-03-30T18:39:43.255Z,11.30
2019-03-30T18:42:11.678Z,11.30
2019-03-30T18:44:40.092Z,11.20
2019-03-30T18:47:08.529Z,11.10
2019-03-30T18:49:36.955Z,11.00
2019-03-30T18:52:05.457Z,11.00
2019-03-30T18:54:34.614Z,10.90
2019-03-30T18:57:03.101Z,10.90
2019-03-30T18:59:31.521Z,10.80
2019-03-30T19:01:59.920Z,10.80
2019-03-30T19:04:28.371Z,10.70
2019-03-30T19:06:56.841Z,10.70
2019-03-30T19:09:25.275Z,10.60
2019-03-30T19:11:54.690Z,10.60
2019-03-30T19:14:23.109Z,10.50
2019-03-30T19:16:51.654Z,10.50
2019-03-30T19:19:20.070Z,10.40
2019-03-30T19:21:48.486Z,10.40
2019-03-30T19:24:16.897Z,10.30
2019-03-30T19:26:45.327Z,10.20
2019-03-30T19:29:13.766Z,10.30
2019-03-30T19:31:42.185Z,10.20
2019-03-30T19:34:10.611Z,10.10
2019-03-30T19:36:39.034Z,10.10
2019-03-30T19:39:09.199Z,10.10
2019-03-30T19:41:37.612Z,10.00
2019-03-30T19:44:06.027Z,10.00
2019-03-30T19:46:34.459Z,10.00
2019-03-30T19:49:02.876Z,9.90
2019-03-30T19:51:31.287Z,9.80
2019-03-30T19:54:00.262Z,9.80
2019-03-30T19:56:28.911Z,9.70
2019-03-30T19:59:10.045Z,9.70
2019-03-30T20:01:27.460Z,9.70
2019-03-30T20:03:55.886Z,9.60
2019-03-30T20:06:24.322Z,9.60
2019-03-30T20:08:52.755Z,9.60
2019-03-30T20:11:21.212Z,9.60
2019-03-30T20:13:49.639Z,9.50
2019-03-30T20:16:18.048Z,9.50
2019-03-30T20:18:46.468Z,9.50
2019-03-30T20:21:14.887Z,9.40
2019-03-30T20:23:43.311Z,9.40
2019-03-30T20:26:12.682Z,9.40
2019-03-30T20:28:41.094Z,9.40
2019-03-30T20:31:09.523Z,9.40
2019-03-30T20:33:38.012Z,9.30
2019-03-30T20:36:06.439Z,9.30
2019-03-30T20:38:34.894Z,9.30
2019-03-30T20:41:03.363Z,9.30
2019-03-30T20:43:31.790Z,9.30
2019-03-30T20:46:00.201Z,9.30
2019-03-30T20:48:28.790Z,9.30
2019-03-30T20:50:57.245Z,9.20
2019-03-30T20:53:25.664Z,9.20
2019-03-30T20:55:54.078Z,9.20
2019-03-30T20:58:22.507Z,9.20
2019-03-30T21:00:50.932Z,9.20
2019-03-30T21:03:19.352Z,9.10
2019-03-30T21:05:47.762Z,9.20
2019-03-30T21:08:16.185Z,9.20
2019-03-30T21:10:44.607Z,9.20
2019-03-30T21:13:13.038Z,9.20
2019-03-30T21:15:41.479Z,9.10
2019-03-30T21:18:09.944Z,9.10
2019-03-30T21:20:38.380Z,9.10
2019-03-30T21:23:06.813Z,9.00
2019-03-30T21:25:35.229Z,9.10
2019-03-30T21:28:04.002Z,9.00
2019-03-30T21:30:32.408Z,9.00
2019-03-30T21:33:01.007Z,9.00
2019-03-30T21:35:29.548Z,8.90
2019-03-30T21:37:58.724Z,9.00
2019-03-30T21:40:27.272Z,8.90
2019-03-30T21:42:55.697Z,8.90
2019-03-30T21:45:24.126Z,8.80
2019-03-30T21:47:52.544Z,8.80
2019-03-30T21:50:20.956Z,8.80
2019-03-30T21:52:49.390Z,8.80
2019-03-30T21:55:17.819Z,8.80
2019-03-30T21:57:46.231Z,8.80
2019-03-30T22:00:17.789Z,8.80
2019-03-30T22:02:46.240Z,8.80
2019-03-30T22:05:14.734Z,8.80
2019-03-30T22:07:43.198Z,8.70
2019-03-30T22:10:14.701Z,8.70
2019-03-30T22:12:43.134Z,8.70
2019-03-30T22:15:13.375Z,8.70
2019-03-30T22:17:41.782Z,8.60
2019-03-30T22:20:10.220Z,8.70
2019-03-30T22:22:38.638Z,8.60
2019-03-30T22:25:07.142Z,8.60
2019-03-30T22:27:35.550Z,8.60
2019-03-30T22:30:06.491Z,8.60
2019-03-30T22:32:34.889Z,8.60
2019-03-30T22:35:03.675Z,8.60
2019-03-30T22:37:32.080Z,8.50
2019-03-30T22:40:00.532Z,8.60
2019-03-30T22:42:29.079Z,8.60
2019-03-30T22:44:57.498Z,8.60
2019-03-30T22:47:25.919Z,8.60
2019-03-30T22:49:54.333Z,8.60
2019-03-30T22:52:22.819Z,8.60
2019-03-30T22:54:51.239Z,8.60
2019-03-30T22:57:19.650Z,8.60
2019-03-30T22:59:48.144Z,8.70
2019-03-30T23:02:16.563Z,8.70
2019-03-30T23:04:44.986Z,8.80
2019-03-30T23:07:13.408Z,8.70
2019-03-30T23:09:41.804Z,8.80
2019-03-30T23:12:10.239Z,8.80
2019-03-30T23:14:38.680Z,8.90
2019-03-30T23:17:07.073Z,8.90
2019-03-30T23:19:35.493Z,9.00
2019-03-30T23:22:03.921Z,9.00
2019-03-30T23:24:32.333Z,9.00
2019-03-30T23:27:00.742Z,9.00
2019-03-30T23:29:29.216Z,9.00
2019-03-30T23:31:57.612Z,9.00
2019-03-30T23:34:26.041Z,9.00
2019-03-30T23:36:54.480Z,9.00
2019-03-30T23:39:22.893Z,8.90
2019-03-30T23:41:51.297Z,8.90
2019-03-30T23:44:19.716Z,8.90
2019-03-30T23:46:48.132Z,8.80
2019-03-30T23:49:16.560Z,8.70
2019-03-30T23:51:44.973Z,8.70
2019-03-30T23:54:15.397Z,8.70
2019-03-30T23:56:43.902Z,8.60
2019-03-30T23:59:12.318Z,8.60
